ADDS METAR Data INFO
IDs: Format: Raw Decoded Include TAF

Data at: 1139 UTC 17 Jul 2018

KDEQ 171053Z AUTO 00000KT 6SM BR CLR 23/23 A2998 RMK AO2 SLP147 T02280228 TSNO $
KDEQ 170953Z AUTO 00000KT 6SM BR CLR 23/23 A2998 RMK AO2 SLP147 T02280228 TSNO $
KDEQ 170853Z AUTO 00000KT 8SM FEW085 23/23 A2998 RMK AO2 SLP144 T02280228 55004 TSNO $
KDEQ 170753Z AUTO 00000KT 8SM CLR 23/23 A2997 RMK AO2 SLP143 T02330233 TSNO $
KDEQ 170653Z AUTO 00000KT 7SM CLR 23/23 A2999 RMK AO2 SLP148 T02330233 TSNO $
KDEQ 170553Z AUTO 00000KT 10SM CLR 24/24 A2999 RMK AO2 SLP148 60000 T02390239 10250 20233 403780233 51007 TSNO $
KDEQ 170453Z AUTO 00000KT 10SM CLR 24/24 A2999 RMK AO2 SLP147 T02390239 TSNO $
KDEQ 170353Z AUTO 00000KT 10SM CLR 24/24 A2998 RMK AO2 SLP147 T02440239 TSNO $
KDEQ 170253Z AUTO 09003KT 10SM CLR 24/24 A2997 RMK AO2 SLP142 60000 T02440239 51002 TSNO $
KDEQ 170153Z AUTO 00000KT 10SM CLR 25/24 A2997 RMK AO2 SLP142 T02500239 TSNO $
KDEQ 170053Z AUTO 00000KT 10SM CLR 25/23 A2998 RMK AO2 RAB18E28 SLP145 P0000 T02500228 TSNO $
KDEQ 162353Z AUTO 04005KT 10SM CLR 25/22 A2996 RMK AO2 RAE2258 SLP140 P0000 60001 T02500222 10378 20244 TSNO $
KDEQ 162253Z AUTO 21009G19KT 10SM -RA BKN100 26/23 A2997 RMK AO2 RAB01B10 SLP144 P0001 T02560228 TSNO $
KDEQ 162225Z AUTO 8SM -RA 27/24 A2995 RMK AO2 RAB01B10 P0001 T02720244 TSNO $
KDEQ 162218Z AUTO 07004G17KT 2 1/2SM -RA 29/23 A2994 RMK AO2 RAB01B10 P0001 T02940228 TSNO $
KDEQ 162153Z AUTO 03007KT 10SM BKN075 OVC100 32/23 A2993 RMK AO2 SLP130 T03220228 TSNO
KDEQ 162053Z AUTO 23007KT 10SM CLR 37/21 A2991 RMK AO2 SLP123 T03720211 56025 TSNO
KDEQ 161953Z AUTO 20005KT 10SM CLR 37/22 A2994 RMK AO2 SLP130 T03670217 TSNO
KDEQ 161853Z AUTO 22008KT 10SM CLR 37/22 A2997 RMK AO2 SLP141 T03670222 TSNO
KDEQ 161753Z AUTO 26006KT 9SM CLR 36/23 A2999 RMK AO2 SLP149 T03560228 10356 20233 58012 TSNO
KDEQ 161653Z AUTO 26007KT 220V290 10SM CLR 34/24 A3001 RMK AO2 SLP157 T03440239 TSNO
KDEQ 161553Z AUTO VRB05KT 10SM CLR 32/24 A3002 RMK AO2 SLP159 T03220244 TSNO
KDEQ 161453Z AUTO 25003KT 10SM CLR 31/24 A3003 RMK AO2 SLP161 T03060244 51011 TSNO
KDEQ 161353Z AUTO 00000KT 10SM FEW090 28/24 A3002 RMK AO2 SLP160 T02830244 TSNO
KDEQ 161253Z AUTO 00000KT 10SM CLR 26/24 A3001 RMK AO2 SLP154 T02610239 TSNO
KDEQ 161153Z AUTO 00000KT 10SM CLR 23/23 A2999 RMK AO2 SLP150 T02330233 10272 20233 53010 TSNO
KDEQ 161053Z AUTO 00000KT 10SM CLR 24/23 A2998 RMK AO2 SLP146 T02390233 TSNO
KDEQ 160953Z AUTO 00000KT 10SM CLR 24/24 A2997 RMK AO2 SLP142 T02440239 TSNO
KDEQ 160853Z AUTO 00000KT 10SM CLR 24/24 A2996 RMK AO2 SLP140 T02440239 55006 TSNO
KDEQ 160753Z AUTO 00000KT 10SM CLR 26/24 A2996 RMK AO2 SLP139 T02560244 TSNO
KDEQ 160653Z AUTO 00000KT 10SM CLR 26/24 A2998 RMK AO2 SLP144 T02560239 TSNO
KDEQ 160553Z AUTO 00000KT 10SM BKN070 BKN080 28/24 A2998 RMK AO2 SLP146 T02780239 10356 20261 403670222 51013 TSNO
KDEQ 160453Z AUTO 00000KT 10SM CLR 26/25 A2997 RMK AO2 SLP143 T02610250 TSNO
KDEQ 160353Z AUTO 00000KT 10SM CLR 27/25 A2996 RMK AO2 SLP140 T02670250 TSNO
KDEQ 160253Z AUTO 00000KT 10SM CLR 28/24 A2994 RMK AO2 SLP133 T02780244 51020 TSNO
KDEQ 160153Z AUTO 00000KT 10SM CLR 29/24 A2993 RMK AO2 SLP127 T02890244 TSNO
KDEQ 160053Z AUTO 20004KT 10SM CLR 34/22 A2990 RMK AO2 SLP119 T03390217 TSNO
KDEQ 152353Z AUTO 21006KT 10SM CLR 36/21 A2988 RMK AO2 SLP113 T03560211 10367 20339 56013 TSNO